Airfield :
LOGIN :

Register | Disclaimer

   EN    FR    IT 

 










Legend :    VFR   Marginal VFR   IFR   Intensive IFR   Very Intensive IFR
Visi :
Ceiling :
>= 8 km
>= 3000ft
5 to 8 km
1000 to 3000 ft
1500m to 5 km
500 to 1000 ft
800 to 1500m
200 to 500 ft
< 800m
< 200 ft
Symbols :   Thunderstorms  Fog  Heavy snow  Heavy precipitations  Wind > 20 kt
SIGMETs :     Misc.  Thunderstorms  Icing  Turbulence  Mountain Waves  Volcanic Ashes







- Airport Elevation : 375 ft
- IATA code : MST


EHBK - Maastricht Aachen

CURRENT METAR :
  • 131255Z AUTO 21024KT 9999 -RA FEW003 BKN016 OVC020 04/02 Q1000 NOSIG

EXPIRED METARs :
  • 131225Z AUTO 21023G34KT 9999 -DZ BKN016/// OVC020/// 05/02 Q1000 REDZ NOSIG
  • 131155Z AUTO 21022KT 9999 -DZ BKN015 OVC018 05/02 Q1000 TEMPO BKN014
  • 131125Z AUTO 21024G34KT 9999 BKN016 OVC019 05/02 Q1001 TEMPO BKN014
  • 131055Z AUTO 20024KT 9999 SCT016 BKN019 OVC022 05/03 Q1001 TEMPO 6000 BKN012
  • 131025Z AUTO 20022KT 9999 FEW014 BKN017 BKN020 04/03 Q1002 REDZ TEMPO 6000 BKN012

TAF TAF EHBK
Valid from the 13 at 12:00 until the 14 at 18:00 UTC


131105Z 1312/1418 21023G33KT 9999 SCT012 BKN018
BECMG 1312/1315 22015KT
PROB40
TEMPO 1312/1314 6000 RA RASN SCT008 BKN012
BECMG 1315/1318 7000 -RA
BECMG 1318/1321 24022G37KT
TEMPO 1318/1322 4000 RA SCT008 BKN012
BECMG 1320/1323 22010KT 9999 NSW
BECMG 1400/1403 25017G27KT
TEMPO 1402/1412 25020G30KT 4000 RA SHRASNGS BKN006 SCT015CB
PROB30
TEMPO 1402/1406 2000 TSSNRA BKN002
BECMG 1409/1412 21012KT
PROB30
TEMPO 1414/1418 6000 -DZ BKN008
No reported NOTAMs for that airfield.



MET'MAP, your aeronautical weather chart ! - Copyright ORBIFLY December 2007 - Disclaimer

ORBIFLY MET'MAP TEAM :

Programming & Development : Alexandra Zaïnal
Concept & Development : Baudouin d'Aumeries
Co-Development & Prog : Marc-Olivier Méhu
Technical & hardware support : Manuel Goepfert

Contact : metmap@orbifly.com




SOURCES & CREDITS :

   NOAA